Главная страница
METAR-TAF:

METAR-TAF

Аэропорты :

Брянск, Россия

широта: 53-15N, долгота: 034-19E, высота над уровнем моря: 217 м

Текущие метеонаблюдения

Эта сводка был подготовлена 4 часа и 11 минут назад, в 15:00 UTC
Штиль
Температура 15°C
Влажность 67%
Давление 1028 hPa
Видимость 10 км и более
Нет облачности ниже 1500 м, и нет кучево-дождевой облачности

METAR: UUBP 151500Z 00000MPS CAVOK 15/09 Q1028 R16/CLRD70 NOSIG RMK QFE753/1004

Время: 22:11 (19:11 UTC)

Прогноз

Эта сводка был подготовлена 8 часа и 17 минут назад, в 10:54 UTC
Прогноз действительный с 15-го 12 UTC до 15-го 21 UTC
Ветер 2 Узел переменных направлений
Видимость 10 км и более
Нет облачности ниже 1500 м, и нет кучево-дождевой облачности

TAF: UUBP 151054Z 1512/1521 VRB01MPS CAVOK

Метеонаблюдения и прогнозы для более 4000 аэропортов (сводки METAR и TAF).

Имеющиеся станции представлены на карте желтыми и красными точками.

Чтобы увидеть название станции, наведите на нее мышь.

Затем щелкните, чтобы увидеть метеонаблюдения и метеопрогнозы.

Управление картой: чтобы увеличить масштаб, щелкните зеленые кнопки с черным крестиком; чтобы уменьшить масштаб, щелкните зеленую кнопку с тире; для просмотра соседних карт щелкайте зеленые стрелки.


METAR-TAF: